sensor_id;sensor_type;location;lat;lon;timestamp;pressure;altitude;pressure_sealevel;temperature;humidity
24013;BME280;12220;50.194;18.948;2023-01-29T00:01:05;102867.99;;;0.75;67.79
24013;BME280;12220;50.194;18.948;2023-01-29T00:03:12;102858.98;;;0.73;67.83
24013;BME280;12220;50.194;18.948;2023-01-29T00:05:13;102865.28;;;0.70;67.93
24013;BME280;12220;50.194;18.948;2023-01-29T00:07:17;102862.59;;;0.72;67.98
24013;BME280;12220;50.194;18.948;2023-01-29T00:09:18;102856.27;;;0.69;67.90
24013;BME280;12220;50.194;18.948;2023-01-29T00:11:20;102862.54;;;0.67;67.88
24013;BME280;12220;50.194;18.948;2023-01-29T00:13:21;102862.54;;;0.65;67.90
24013;BME280;12220;50.194;18.948;2023-01-29T00:15:32;102861.65;;;0.65;67.95
24013;BME280;12220;50.194;18.948;2023-01-29T00:17:33;102866.15;;;0.64;67.99
24013;BME280;12220;50.194;18.948;2023-01-29T00:19:35;102871.53;;;0.61;67.95
24013;BME280;12220;50.194;18.948;2023-01-29T00:21:37;102873.29;;;0.59;68.01
24013;BME280;12220;50.194;18.948;2023-01-29T00:23:48;102875.09;;;0.57;68.06
24013;BME280;12220;50.194;18.948;2023-01-29T00:25:49;102875.96;;;0.55;68.13
24013;BME280;12220;50.194;18.948;2023-01-29T00:32:50;102885.88;;;0.57;68.31
24013;BME280;12220;50.194;18.948;2023-01-29T00:34:53;102884.07;;;0.56;68.35
24013;BME280;12220;50.194;18.948;2023-01-29T00:36:55;102878.67;;;0.56;68.43
24013;BME280;12220;50.194;18.948;2023-01-29T00:39:19;102883.18;;;0.57;68.37
24013;BME280;12220;50.194;18.948;2023-01-29T00:41:27;102885.88;;;0.57;68.40
24013;BME280;12220;50.194;18.948;2023-01-29T00:43:55;102888.59;;;0.60;68.38
24013;BME280;12220;50.194;18.948;2023-01-29T00:46:08;102889.47;;;0.59;68.43
24013;BME280;12220;50.194;18.948;2023-01-29T00:48:10;101715.53;;;-6.71;67.72
24013;BME280;12220;50.194;18.948;2023-01-29T00:50:15;102892.19;;;0.62;68.40
24013;BME280;12220;50.194;18.948;2023-01-29T00:52:16;102890.41;;;0.63;68.33
24013;BME280;12220;50.194;18.948;2023-01-29T00:54:24;102893.10;;;0.63;68.33
24013;BME280;12220;50.194;18.948;2023-01-29T00:58:56;102890.41;;;0.63;68.15
24013;BME280;12220;50.194;18.948;2023-01-29T01:03:24;102900.26;;;0.59;68.12
24013;BME280;12220;50.194;18.948;2023-01-29T01:10:29;102903.81;;;0.52;68.14
24013;BME280;12220;50.194;18.948;2023-01-29T01:12:39;102901.99;;;0.51;68.13
24013;BME280;12220;50.194;18.948;2023-01-29T01:14:40;102911.88;;;0.49;68.11
24013;BME280;12220;50.194;18.948;2023-01-29T01:16:46;102910.92;;;0.42;68.03
24013;BME280;12220;50.194;18.948;2023-01-29T01:18:48;102902.82;;;0.39;68.08
24013;BME280;12220;50.194;18.948;2023-01-29T01:20:56;102908.20;;;0.38;68.14
24013;BME280;12220;50.194;18.948;2023-01-29T01:23:06;102908.23;;;0.42;68.19
24013;BME280;12220;50.194;18.948;2023-01-29T01:25:08;102903.73;;;0.37;68.23
24013;BME280;12220;50.194;18.948;2023-01-29T01:27:10;102905.48;;;0.34;68.20
24013;BME280;12220;50.194;18.948;2023-01-29T01:29:12;102906.36;;;0.33;68.15
24013;BME280;12220;50.194;18.948;2023-01-29T01:31:14;102888.41;;;0.31;68.17
24013;BME280;12220;50.194;18.948;2023-01-29T01:33:16;102886.61;;;0.31;68.23
24013;BME280;12220;50.194;18.948;2023-01-29T01:35:18;102892.88;;;0.32;68.16
24013;BME280;12220;50.194;18.948;2023-01-29T01:37:30;102896.48;;;0.29;68.02
24013;BME280;12220;50.194;18.948;2023-01-29T01:39:32;102898.23;;;0.26;68.03
24013;BME280;12220;50.194;18.948;2023-01-29T01:41:34;102889.26;;;0.24;68.06
24013;BME280;12220;50.194;18.948;2023-01-29T01:44:00;102891.95;;;0.24;68.00
24013;BME280;12220;50.194;18.948;2023-01-29T01:45:51;102901.78;;;0.20;67.85
24013;BME280;12220;50.194;18.948;2023-01-29T01:48:21;102888.28;;;0.15;67.84
24013;BME280;12220;50.194;18.948;2023-01-29T01:50:36;102903.55;;;0.15;67.94
24013;BME280;12220;50.194;18.948;2023-01-29T01:52:52;102890.97;;;0.14;67.86
24013;BME280;12220;50.194;18.948;2023-01-29T01:54:56;102892.76;;;0.13;67.74
24013;BME280;12220;50.194;18.948;2023-01-29T01:57:05;102831.47;;;-0.17;67.75
24013;BME280;12220;50.194;18.948;2023-01-29T01:59:17;102883.77;;;0.13;67.84
24013;BME280;12220;50.194;18.948;2023-01-29T02:01:21;102884.70;;;0.16;67.88
24013;BME280;12220;50.194;18.948;2023-01-29T02:03:29;102878.39;;;0.16;67.65
24013;BME280;12220;50.194;18.948;2023-01-29T02:05:46;102871.23;;;0.15;67.56
24013;BME280;12220;50.194;18.948;2023-01-29T02:08:08;102871.20;;;0.12;67.37
24013;BME280;12220;50.194;18.948;2023-01-29T02:10:31;102831.55;;;-0.05;67.35
24013;BME280;12220;50.194;18.948;2023-01-29T02:12:37;102853.20;;;0.08;67.03
24013;BME280;12220;50.194;18.948;2023-01-29T02:14:42;102857.66;;;0.06;66.96
24013;BME280;12220;50.194;18.948;2023-01-29T02:16:44;102859.44;;;0.01;66.96
24013;BME280;12220;50.194;18.948;2023-01-29T02:18:46;102873.78;;;-0.02;66.87
24013;BME280;12220;50.194;18.948;2023-01-29T02:27:40;102856.59;;;-0.16;66.57
24013;BME280;12220;50.194;18.948;2023-01-29T02:36:44;102841.25;;;-0.27;66.40
24013;BME280;12220;50.194;18.948;2023-01-29T02:43:46;102834.02;;;-0.32;66.27
24013;BME280;12220;50.194;18.948;2023-01-29T02:48:22;102844.71;;;-0.40;65.49
24013;BME280;12220;50.194;18.948;2023-01-29T02:50:35;102849.16;;;-0.44;65.63
24013;BME280;12220;50.194;18.948;2023-01-29T02:52:56;102859.03;;;-0.44;65.80
24013;BME280;12220;50.194;18.948;2023-01-29T02:54:58;102869.83;;;-0.43;65.85
24013;BME280;12220;50.194;18.948;2023-01-29T02:57:15;102872.50;;;-0.44;65.70
24013;BME280;12220;50.194;18.948;2023-01-29T02:59:26;102880.58;;;-0.44;65.33
24013;BME280;12220;50.194;18.948;2023-01-29T03:01:35;102873.35;;;-0.47;65.28
24013;BME280;12220;50.194;18.948;2023-01-29T03:03:53;102884.09;;;-0.50;64.54
24013;BME280;12220;50.194;18.948;2023-01-29T03:06:06;102884.95;;;-0.54;64.66
24013;BME280;12220;50.194;18.948;2023-01-29T03:10:51;102884.03;;;-0.58;64.45
24013;BME280;12220;50.194;18.948;2023-01-29T03:13:02;102875.02;;;-0.60;64.53
24013;BME280;12220;50.194;18.948;2023-01-29T03:15:10;102879.54;;;-0.57;64.57
24013;BME280;12220;50.194;18.948;2023-01-29T03:17:20;102883.14;;;-0.58;64.48
24013;BME280;12220;50.194;18.948;2023-01-29T03:19:37;102886.72;;;-0.58;64.31
24013;BME280;12220;50.194;18.948;2023-01-29T03:21:46;102891.16;;;-0.60;64.33
24013;BME280;12220;50.194;18.948;2023-01-29T03:24:01;102903.73;;;-0.60;64.29
24013;BME280;12220;50.194;18.948;2023-01-29T03:26:18;102902.82;;;-0.62;64.19
24013;BME280;12220;50.194;18.948;2023-01-29T03:28:33;102903.73;;;-0.60;64.14
24013;BME280;12220;50.194;18.948;2023-01-29T03:30:51;102904.63;;;-0.60;64.18
24013;BME280;12220;50.194;18.948;2023-01-29T03:33:07;102910.95;;;-0.58;64.29
24013;BME280;12220;50.194;18.948;2023-01-29T03:35:12;102902.02;;;-0.55;63.87
24013;BME280;12220;50.194;18.948;2023-01-29T03:37:45;102905.60;;;-0.53;63.98
24013;BME280;12220;50.194;18.948;2023-01-29T03:39:51;102894.84;;;-0.53;63.93
24013;BME280;12220;50.194;18.948;2023-01-29T03:42:03;102892.14;;;-0.53;63.83
24013;BME280;12220;50.194;18.948;2023-01-29T03:48:36;102901.04;;;-0.60;62.75
24013;BME280;12220;50.194;18.948;2023-01-29T03:50:50;102898.29;;;-0.66;62.61
24013;BME280;12220;50.194;18.948;2023-01-29T03:55:21;102880.27;;;-0.72;62.96
24013;BME280;12220;50.194;18.948;2023-01-29T03:59:47;102867.69;;;-0.75;62.95
24013;BME280;12220;50.194;18.948;2023-01-29T04:01:53;102876.67;;;-0.76;63.04
24013;BME280;12220;50.194;18.948;2023-01-29T04:06:16;102867.69;;;-0.75;62.97
24013;BME280;12220;50.194;18.948;2023-01-29T04:08:30;102877.58;;;-0.74;63.08
24013;BME280;12220;50.194;18.948;2023-01-29T04:10:35;102875.78;;;-0.73;62.97
24013;BME280;12220;50.194;18.948;2023-01-29T04:12:46;102871.30;;;-0.74;62.95
24013;BME280;12220;50.194;18.948;2023-01-29T04:14:51;102874.01;;;-0.73;63.01
24013;BME280;12220;50.194;18.948;2023-01-29T04:17:07;102899.13;;;-0.72;62.95
24013;BME280;12220;50.194;18.948;2023-01-29T04:19:07;102861.45;;;-0.72;62.72
24013;BME280;12220;50.194;18.948;2023-01-29T04:21:09;102858.74;;;-0.74;62.77
24013;BME280;12220;50.194;18.948;2023-01-29T04:23:21;102853.38;;;-0.72;62.82
24013;BME280;12220;50.194;18.948;2023-01-29T04:25:27;102857.90;;;-0.69;62.81
24013;BME280;12220;50.194;18.948;2023-01-29T04:27:40;102849.84;;;-0.68;62.91
24013;BME280;12220;50.194;18.948;2023-01-29T04:32:18;102835.55;;;-0.62;62.93
24013;BME280;12220;50.194;18.948;2023-01-29T04:34:28;102831.95;;;-0.61;62.94
24013;BME280;12220;50.194;18.948;2023-01-29T04:39:21;102811.35;;;-0.59;62.93
24013;BME280;12220;50.194;18.948;2023-01-29T04:44:04;102794.36;;;-0.55;62.73
24013;BME280;12220;50.194;18.948;2023-01-29T04:46:45;102531.16;;;-2.10;62.62
24013;BME280;12220;50.194;18.948;2023-01-29T04:51:07;102798.81;;;-0.56;62.67
24013;BME280;12220;50.194;18.948;2023-01-29T04:55:49;102786.28;;;-0.55;62.69
24013;BME280;12220;50.194;18.948;2023-01-29T04:58:11;102788.98;;;-0.54;62.69
24013;BME280;12220;50.194;18.948;2023-01-29T05:00:30;102789.87;;;-0.53;62.77
24013;BME280;12220;50.194;18.948;2023-01-29T05:02:37;102786.33;;;-0.49;62.83
24013;BME280;12220;50.194;18.948;2023-01-29T05:04:40;102789.91;;;-0.47;62.74
24013;BME280;12220;50.194;18.948;2023-01-29T05:06:44;102782.77;;;-0.46;62.73
24013;BME280;12220;50.194;18.948;2023-01-29T05:08:50;102794.42;;;-0.46;62.63
24013;BME280;12220;50.194;18.948;2023-01-29T05:10:53;102791.73;;;-0.47;62.44
24013;BME280;12220;50.194;18.948;2023-01-29T05:13:03;102798.88;;;-0.51;62.53
24013;BME280;12220;50.194;18.948;2023-01-29T05:15:16;102800.66;;;-0.50;62.60
24013;BME280;12220;50.194;18.948;2023-01-29T05:17:19;102809.66;;;-0.51;62.66
24013;BME280;12220;50.194;18.948;2023-01-29T05:19:22;102808.73;;;-0.50;62.73
24013;BME280;12220;50.194;18.948;2023-01-29T05:21:24;102803.37;;;-0.48;62.81
24013;BME280;12220;50.194;18.948;2023-01-29T05:23:30;102806.98;;;-0.46;62.89
24013;BME280;12220;50.194;18.948;2023-01-29T05:25:32;102810.59;;;-0.43;62.92
24013;BME280;12220;50.194;18.948;2023-01-29T05:27:37;102807.91;;;-0.43;62.84
24013;BME280;12220;50.194;18.948;2023-01-29T05:30:01;102815.10;;;-0.42;62.79
24013;BME280;12220;50.194;18.948;2023-01-29T05:32:03;102809.70;;;-0.43;62.79
24013;BME280;12220;50.194;18.948;2023-01-29T05:34:05;102813.28;;;-0.44;62.66
24013;BME280;12220;50.194;18.948;2023-01-29T05:36:07;102810.57;;;-0.46;62.71
24013;BME280;12220;50.194;18.948;2023-01-29T05:38:14;102809.68;;;-0.46;62.81
24013;BME280;12220;50.194;18.948;2023-01-29T05:40:16;102817.77;;;-0.45;62.82
24013;BME280;12220;50.194;18.948;2023-01-29T05:42:17;102856.34;;;-0.46;62.73
24013;BME280;12220;50.194;18.948;2023-01-29T05:44:19;102807.88;;;-0.46;62.84
24013;BME280;12220;50.194;18.948;2023-01-29T05:46:29;102799.82;;;-0.44;62.88
24013;BME280;12220;50.194;18.948;2023-01-29T05:48:30;102811.52;;;-0.42;62.90
24013;BME280;12220;50.194;18.948;2023-01-29T05:50:32;102804.34;;;-0.42;62.88
24013;BME280;12220;50.194;18.948;2023-01-29T05:52:34;102807.91;;;-0.41;62.88
24013;BME280;12220;50.194;18.948;2023-01-29T05:54:44;102815.11;;;-0.40;62.96
24013;BME280;12220;50.194;18.948;2023-01-29T05:56:46;102819.64;;;-0.36;62.98
24013;BME280;12220;50.194;18.948;2023-01-29T05:58:47;102806.18;;;-0.36;62.97
24013;BME280;12220;50.194;18.948;2023-01-29T06:00:49;102813.35;;;-0.35;62.74
24013;BME280;12220;50.194;18.948;2023-01-29T06:02:59;102818.70;;;-0.40;62.68
24013;BME280;12220;50.194;18.948;2023-01-29T06:05:01;102814.21;;;-0.42;62.79
24013;BME280;12220;50.194;18.948;2023-01-29T06:07:02;102813.30;;;-0.40;62.86
24013;BME280;12220;50.194;18.948;2023-01-29T06:09:05;102825.02;;;-0.38;62.96
24013;BME280;12220;50.194;18.948;2023-01-29T06:11:15;102816.03;;;-0.37;62.96
24013;BME280;12220;50.194;18.948;2023-01-29T06:13:18;102819.64;;;-0.36;62.66
24013;BME280;12220;50.194;18.948;2023-01-29T06:15:19;102825.89;;;-0.39;62.71
24013;BME280;12220;50.194;18.948;2023-01-29T06:17:21;102817.81;;;-0.40;62.75
24013;BME280;12220;50.194;18.948;2023-01-29T06:19:29;102819.62;;;-0.39;62.85
24013;BME280;12220;50.194;18.948;2023-01-29T06:21:31;102828.60;;;-0.37;62.94
24013;BME280;12220;50.194;18.948;2023-01-29T06:23:33;102825.91;;;-0.36;62.79
24013;BME280;12220;50.194;18.948;2023-01-29T06:25:34;102831.31;;;-0.34;62.80
24013;BME280;12220;50.194;18.948;2023-01-29T06:27:44;102837.59;;;-0.35;62.76
24013;BME280;12220;50.194;18.948;2023-01-29T06:29:46;102834.86;;;-0.37;62.63
24013;BME280;12220;50.194;18.948;2023-01-29T06:31:47;102832.16;;;-0.38;62.70
24013;BME280;12220;50.194;18.948;2023-01-29T06:33:49;102831.30;;;-0.36;62.77
24013;BME280;12220;50.194;18.948;2023-01-29T06:36:03;102831.31;;;-0.34;62.80
24013;BME280;12220;50.194;18.948;2023-01-29T06:38:04;102827.72;;;-0.34;62.75
24013;BME280;12220;50.194;18.948;2023-01-29T06:40:07;102842.09;;;-0.32;62.75
24013;BME280;12220;50.194;18.948;2023-01-29T06:42:08;102837.63;;;-0.32;62.82
24013;BME280;12220;50.194;18.948;2023-01-29T06:44:15;102843.04;;;-0.29;62.87
24013;BME280;12220;50.194;18.948;2023-01-29T06:46:16;102830.47;;;-0.28;62.93
24013;BME280;12220;50.194;18.948;2023-01-29T06:48:18;102830.51;;;-0.24;62.90
24013;BME280;12220;50.194;18.948;2023-01-29T06:50:20;102831.42;;;-0.23;62.86
24013;BME280;12220;50.194;18.948;2023-01-29T06:52:30;102823.35;;;-0.22;62.87
24013;BME280;12220;50.194;18.948;2023-01-29T06:54:31;102829.64;;;-0.21;62.82
24013;BME280;12220;50.194;18.948;2023-01-29T06:56:33;102828.75;;;-0.20;62.84
24013;BME280;12220;50.194;18.948;2023-01-29T06:58:37;102823.38;;;-0.19;62.86
24013;BME280;12220;50.194;18.948;2023-01-29T07:00:45;102831.46;;;-0.19;62.82
24013;BME280;12220;50.194;18.948;2023-01-29T07:02:50;102826.06;;;-0.20;62.84
24013;BME280;12220;50.194;18.948;2023-01-29T07:04:51;102832.33;;;-0.21;62.70
24013;BME280;12220;50.194;18.948;2023-01-29T07:06:53;102830.51;;;-0.24;62.73
24013;BME280;12220;50.194;18.948;2023-01-29T07:09:01;102834.12;;;-0.23;62.83
24013;BME280;12220;50.194;18.948;2023-01-29T07:11:03;102846.66;;;-0.24;62.80
24013;BME280;12220;50.194;18.948;2023-01-29T07:13:04;102838.54;;;-0.28;62.89
24013;BME280;12220;50.194;18.948;2023-01-29T07:15:06;102847.51;;;-0.28;63.07
24013;BME280;12220;50.194;18.948;2023-01-29T07:17:15;102843.02;;;-0.30;63.18
24013;BME280;12220;50.194;18.948;2023-01-29T07:19:16;102841.21;;;-0.31;63.36
24013;BME280;12220;50.194;18.948;2023-01-29T07:21:18;102844.79;;;-0.32;63.58
24013;BME280;12220;50.194;18.948;2023-01-29T07:23:20;102852.86;;;-0.32;63.83
24013;BME280;12220;50.194;18.948;2023-01-29T07:25:30;102845.70;;;-0.32;63.96
24013;BME280;12220;50.194;18.948;2023-01-29T07:27:33;102858.25;;;-0.32;64.11
24013;BME280;12220;50.194;18.948;2023-01-29T07:29:34;102860.94;;;-0.32;64.29
24013;BME280;12220;50.194;18.948;2023-01-29T07:31:36;102855.54;;;-0.34;64.46
24013;BME280;12220;50.194;18.948;2023-01-29T07:33:45;102865.41;;;-0.34;64.66
24013;BME280;12220;50.194;18.948;2023-01-29T07:35:47;102848.34;;;-0.37;64.75
24013;BME280;12220;50.194;18.948;2023-01-29T07:37:49;102851.94;;;-0.38;64.94
24013;BME280;12220;50.194;18.948;2023-01-29T07:39:51;102859.11;;;-0.37;65.07
24013;BME280;12220;50.194;18.948;2023-01-29T07:42:01;102860.03;;;-0.34;65.21
24013;BME280;12220;50.194;18.948;2023-01-29T07:44:03;102867.19;;;-0.35;65.38
24013;BME280;12220;50.194;18.948;2023-01-29T07:46:04;102870.79;;;-0.36;65.53
24013;BME280;12220;50.194;18.948;2023-01-29T07:48:09;102862.71;;;-0.36;65.67
24013;BME280;12220;50.194;18.948;2023-01-29T07:50:16;102869.88;;;-0.37;65.95
24013;BME280;12220;50.194;18.948;2023-01-29T07:52:17;102865.37;;;-0.41;65.98
24013;BME280;12220;50.194;18.948;2023-01-29T07:54:19;102861.74;;;-0.43;66.23
24013;BME280;12220;50.194;18.948;2023-01-29T07:56:20;102866.21;;;-0.46;66.46
24013;BME280;12220;50.194;18.948;2023-01-29T07:58:31;102870.66;;;-0.48;66.47
24013;BME280;12220;50.194;18.948;2023-01-29T08:00:32;102876.05;;;-0.47;66.58
24013;BME280;12220;50.194;18.948;2023-01-29T08:02:34;102877.87;;;-0.46;66.69
24013;BME280;12220;50.194;18.948;2023-01-29T08:04:35;102890.45;;;-0.45;66.85
24013;BME280;12220;50.194;18.948;2023-01-29T08:06:46;102924.52;;;-0.44;66.93
24013;BME280;12220;50.194;18.948;2023-01-29T08:08:48;102894.97;;;-0.42;66.90
24013;BME280;12220;50.194;18.948;2023-01-29T08:10:49;102899.43;;;-0.43;66.97
24013;BME280;12220;50.194;18.948;2023-01-29T08:12:58;102899.41;;;-0.44;67.07
24013;BME280;12220;50.194;18.948;2023-01-29T08:15:02;102905.73;;;-0.42;67.12
24013;BME280;12220;50.194;18.948;2023-01-29T08:17:03;102904.84;;;-0.40;67.19
24013;BME280;12220;50.194;18.948;2023-01-29T08:19:05;102645.16;;;-1.83;67.14
24013;BME280;12220;50.194;18.948;2023-01-29T08:21:06;102907.55;;;-0.38;67.21
24013;BME280;12220;50.194;18.948;2023-01-29T08:23:16;102903.06;;;-0.41;67.35
24013;BME280;12220;50.194;18.948;2023-01-29T08:25:18;102635.05;;;-2.03;67.27
24013;BME280;12220;50.194;18.948;2023-01-29T08:27:20;102904.73;;;-0.50;67.38
24013;BME280;12220;50.194;18.948;2023-01-29T08:29:21;102911.00;;;-0.51;67.43
24013;BME280;12220;50.194;18.948;2023-01-29T08:31:32;102902.91;;;-0.53;67.51
24013;BME280;12220;50.194;18.948;2023-01-29T08:33:33;102907.41;;;-0.54;67.55
24013;BME280;12220;50.194;18.948;2023-01-29T08:35:37;102902.93;;;-0.51;67.55
24013;BME280;12220;50.194;18.948;2023-01-29T08:37:41;102900.26;;;-0.50;67.55
24013;BME280;12220;50.194;18.948;2023-01-29T08:39:47;102901.21;;;-0.46;67.57
24013;BME280;12220;50.194;18.948;2023-01-29T08:41:48;102910.17;;;-0.46;67.56
24013;BME280;12220;50.194;18.948;2023-01-29T08:43:50;102909.30;;;-0.43;67.57
24013;BME280;12220;50.194;18.948;2023-01-29T08:45:51;102902.11;;;-0.44;67.50
24013;BME280;12220;50.194;18.948;2023-01-29T08:48:02;102912.83;;;-0.49;67.35
24013;BME280;12220;50.194;18.948;2023-01-29T08:50:04;102911.00;;;-0.51;67.33
24013;BME280;12220;50.194;18.948;2023-01-29T08:52:06;102915.49;;;-0.52;67.44
24013;BME280;12220;50.194;18.948;2023-01-29T08:54:10;102914.63;;;-0.51;67.40
24013;BME280;12220;50.194;18.948;2023-01-29T08:56:17;102911.00;;;-0.51;67.43
24013;BME280;12220;50.194;18.948;2023-01-29T08:58:22;102906.55;;;-0.51;67.46
24013;BME280;12220;50.194;18.948;2023-01-29T09:00:24;102907.45;;;-0.49;67.52
24013;BME280;12220;50.194;18.948;2023-01-29T09:02:25;102901.19;;;-0.48;67.55
24013;BME280;12220;50.194;18.948;2023-01-29T09:04:32;102904.78;;;-0.46;67.61
24013;BME280;12220;50.194;18.948;2023-01-29T09:06:34;102906.60;;;-0.45;67.69
24013;BME280;12220;50.194;18.948;2023-01-29T09:08:36;102903.91;;;-0.45;67.63
24013;BME280;12220;50.194;18.948;2023-01-29T09:10:37;102888.66;;;-0.43;67.68
24013;BME280;12220;50.194;18.948;2023-01-29T09:12:47;102875.26;;;-0.37;67.79
24013;BME280;12220;50.194;18.948;2023-01-29T09:14:49;102872.64;;;-0.30;67.85
24013;BME280;12220;50.194;18.948;2023-01-29T09:16:50;102872.67;;;-0.27;67.87
24013;BME280;12220;50.194;18.948;2023-01-29T09:18:52;102871.80;;;-0.25;67.78
24013;BME280;12220;50.194;18.948;2023-01-29T09:21:03;102865.50;;;-0.24;67.68
24013;BME280;12220;50.194;18.948;2023-01-29T09:23:08;102863.72;;;-0.25;67.69
24013;BME280;12220;50.194;18.948;2023-01-29T09:25:10;102860.13;;;-0.22;67.69
24013;BME280;12220;50.194;18.948;2023-01-29T09:27:12;102861.98;;;-0.18;67.70
24013;BME280;12220;50.194;18.948;2023-01-29T09:29:18;102859.30;;;-0.15;67.47
24013;BME280;12220;50.194;18.948;2023-01-29T09:31:19;102866.50;;;-0.12;67.35
24013;BME280;12220;50.194;18.948;2023-01-29T09:33:21;102871.03;;;-0.08;67.36
24013;BME280;12220;50.194;18.948;2023-01-29T09:35:24;102863.85;;;-0.06;67.26
24013;BME280;12220;50.194;18.948;2023-01-29T09:37:33;102869.27;;;-0.02;67.17
24013;BME280;12220;50.194;18.948;2023-01-29T09:39:35;102875.60;;;0.01;67.00
24013;BME280;12220;50.194;18.948;2023-01-29T09:43:58;102882.84;;;0.06;66.87
24013;BME280;12220;50.194;18.948;2023-01-29T09:46:51;102881.92;;;0.07;66.61
24013;BME280;12220;50.194;18.948;2023-01-29T09:48:15;102884.62;;;0.07;66.38
24013;BME280;12220;50.194;18.948;2023-01-29T09:50:20;102887.29;;;0.06;65.55
24013;BME280;12220;50.194;18.948;2023-01-29T09:52:29;102884.59;;;0.04;65.27
24013;BME280;12220;50.194;18.948;2023-01-29T09:54:45;102863.02;;;0.01;65.47
24013;BME280;12220;50.194;18.948;2023-01-29T09:56:51;102859.44;;;0.01;65.30
24013;BME280;12220;50.194;18.948;2023-01-29T09:58:57;102864.83;;;0.01;64.98
24013;BME280;12220;50.194;18.948;2023-01-29T10:01:07;102866.58;;;-0.02;64.35
24013;BME280;12220;50.194;18.948;2023-01-29T10:05:37;102851.35;;;0.01;64.38
24013;BME280;12220;50.194;18.948;2023-01-29T10:08:11;102851.35;;;0.01;64.17
24013;BME280;12220;50.194;18.948;2023-01-29T10:16:54;102806.53;;;0.09;63.81
24013;BME280;12220;50.194;18.948;2023-01-29T10:19:15;102813.71;;;0.13;63.85
24013;BME280;12220;50.194;18.948;2023-01-29T10:25:56;102815.53;;;0.17;63.08
24013;BME280;12220;50.194;18.948;2023-01-29T10:27:59;102800.26;;;0.16;62.20
24013;BME280;12220;50.194;18.948;2023-01-29T10:34:58;102779.49;;;-0.02;60.63
24013;BME280;12220;50.194;18.948;2023-01-29T10:39:25;102770.45;;;-0.12;60.64
24013;BME280;12220;50.194;18.948;2023-01-29T10:43:50;102714.52;;;-0.50;59.96
24013;BME280;12220;50.194;18.948;2023-01-29T10:48:25;102748.84;;;-0.21;60.87
24013;BME280;12220;50.194;18.948;2023-01-29T10:52:53;102739.04;;;-0.13;61.26
24013;BME280;12220;50.194;18.948;2023-01-29T11:04:18;102716.67;;;0.01;61.10
24013;BME280;12220;50.194;18.948;2023-01-29T11:13:01;102702.34;;;0.08;61.47
24013;BME280;12220;50.194;18.948;2023-01-29T11:15:15;102699.66;;;0.12;61.35
24013;BME280;12220;50.194;18.948;2023-01-29T11:17:22;102689.78;;;0.16;61.48
24013;BME280;12220;50.194;18.948;2023-01-29T11:19:36;102689.82;;;0.19;61.56
24013;BME280;12220;50.194;18.948;2023-01-29T11:26:10;102674.55;;;0.21;61.30
24013;BME280;12220;50.194;18.948;2023-01-29T11:28:13;102663.78;;;0.23;61.25
24013;BME280;12220;50.194;18.948;2023-01-29T11:30:40;102668.29;;;0.25;61.42
24013;BME280;12220;50.194;18.948;2023-01-29T11:37:36;102666.49;;;0.30;61.08
24013;BME280;12220;50.194;18.948;2023-01-29T11:39:42;102401.19;;;-1.17;61.23
24013;BME280;12220;50.194;18.948;2023-01-29T11:41:56;102661.16;;;0.40;61.53
24013;BME280;12220;50.194;18.948;2023-01-29T11:43:58;102671.05;;;0.45;61.31
24013;BME280;12220;50.194;18.948;2023-01-29T11:46:03;102664.75;;;0.48;61.11
24013;BME280;12220;50.194;18.948;2023-01-29T11:48:21;102661.16;;;0.49;61.11
24013;BME280;12220;50.194;18.948;2023-01-29T11:50:37;102648.59;;;0.48;61.04
24013;BME280;12220;50.194;18.948;2023-01-29T11:52:40;102659.35;;;0.48;60.64
24013;BME280;12220;50.194;18.948;2023-01-29T11:54:52;102659.35;;;0.42;60.18
24013;BME280;12220;50.194;18.948;2023-01-29T11:56:55;102658.45;;;0.37;60.11
24013;BME280;12220;50.194;18.948;2023-01-29T11:58:57;102662.91;;;0.30;59.95
24013;BME280;12220;50.194;18.948;2023-01-29T12:01:14;102658.38;;;0.20;59.60
24013;BME280;12220;50.194;18.948;2023-01-29T12:07:58;102666.49;;;0.29;60.31
24013;BME280;12220;50.194;18.948;2023-01-29T12:10:01;102671.89;;;0.33;60.34
24013;BME280;12220;50.194;18.948;2023-01-29T12:14:31;102656.64;;;0.34;59.94
24013;BME280;12220;50.194;18.948;2023-01-29T12:16:55;102647.67;;;0.35;59.92
24013;BME280;12220;50.194;18.948;2023-01-29T12:19:17;102655.77;;;0.40;60.20
24013;BME280;12220;50.194;18.948;2023-01-29T12:21:38;102647.68;;;0.46;60.42
24013;BME280;12220;50.194;18.948;2023-01-29T12:23:55;102655.79;;;0.50;60.22
24013;BME280;12220;50.194;18.948;2023-01-29T12:26:05;102646.80;;;0.55;60.19
24013;BME280;12220;50.194;18.948;2023-01-29T12:28:21;102648.61;;;0.57;59.60
24013;BME280;12220;50.194;18.948;2023-01-29T12:30:30;102646.81;;;0.56;59.12
24013;BME280;12220;50.194;18.948;2023-01-29T12:32:43;102639.61;;;0.58;59.42
24013;BME280;12220;50.194;18.948;2023-01-29T12:37:19;102632.45;;;0.65;59.69
24013;BME280;12220;50.194;18.948;2023-01-29T12:39:20;102627.05;;;0.69;59.71
24013;BME280;12220;50.194;18.948;2023-01-29T12:41:31;102622.57;;;0.68;58.92
24013;BME280;12220;50.194;18.948;2023-01-29T12:43:41;102628.86;;;0.66;58.64
24013;BME280;12220;50.194;18.948;2023-01-29T12:45:49;102348.43;;;-0.90;58.46
24013;BME280;12220;50.194;18.948;2023-01-29T12:48:01;102616.26;;;0.62;58.64
24013;BME280;12220;50.194;18.948;2023-01-29T12:50:16;102617.15;;;0.62;58.41
24013;BME280;12220;50.194;18.948;2023-01-29T12:54:51;102614.45;;;0.59;58.24
24013;BME280;12220;50.194;18.948;2023-01-29T12:56:58;102608.18;;;0.57;57.54
24013;BME280;12220;50.194;18.948;2023-01-29T12:59:08;102605.48;;;0.54;57.30
24013;BME280;12220;50.194;18.948;2023-01-29T13:05:56;102600.98;;;0.53;57.69
24013;BME280;12220;50.194;18.948;2023-01-29T13:08:23;102597.39;;;0.54;57.91
24013;BME280;12220;50.194;18.948;2023-01-29T13:10:19;102597.39;;;0.57;58.00
24013;BME280;12220;50.194;18.948;2023-01-29T13:12:24;102592.88;;;0.62;57.78